sensor_id;sensor_type;location;lat;lon;timestamp;P1;durP1;ratioP1;P2;durP2;ratioP2
32812;SDS011;19162;48.254;11.454;2022-08-06T00:01:11;2.72;;;2.40;;
32812;SDS011;19162;48.254;11.454;2022-08-06T00:04:12;4.78;;;3.00;;
32812;SDS011;19162;48.254;11.454;2022-08-06T00:07:12;3.47;;;2.63;;
32812;SDS011;19162;48.254;11.454;2022-08-06T00:10:13;3.75;;;2.80;;
32812;SDS011;19162;48.254;11.454;2022-08-06T00:13:13;3.80;;;3.10;;
32812;SDS011;19162;48.254;11.454;2022-08-06T00:16:13;5.10;;;3.13;;
32812;SDS011;19162;48.254;11.454;2022-08-06T00:19:14;3.38;;;3.00;;
32812;SDS011;19162;48.254;11.454;2022-08-06T00:22:14;4.30;;;3.30;;
32812;SDS011;19162;48.254;11.454;2022-08-06T00:25:14;3.83;;;3.20;;
32812;SDS011;19162;48.254;11.454;2022-08-06T00:28:14;3.03;;;2.83;;
32812;SDS011;19162;48.254;11.454;2022-08-06T00:31:15;3.67;;;3.03;;
32812;SDS011;19162;48.254;11.454;2022-08-06T00:34:15;3.50;;;3.20;;
32812;SDS011;19162;48.254;11.454;2022-08-06T00:37:16;3.20;;;2.90;;
32812;SDS011;19162;48.254;11.454;2022-08-06T00:40:16;4.88;;;3.22;;
32812;SDS011;19162;48.254;11.454;2022-08-06T00:43:18;6.38;;;3.45;;
32812;SDS011;19162;48.254;11.454;2022-08-06T00:46:18;4.30;;;3.30;;
32812;SDS011;19162;48.254;11.454;2022-08-06T00:49:19;3.63;;;3.33;;
32812;SDS011;19162;48.254;11.454;2022-08-06T00:52:19;3.50;;;3.20;;
32812;SDS011;19162;48.254;11.454;2022-08-06T00:55:19;3.42;;;2.88;;
32812;SDS011;19162;48.254;11.454;2022-08-06T00:58:19;3.10;;;2.80;;
32812;SDS011;19162;48.254;11.454;2022-08-06T01:01:20;3.37;;;2.70;;
32812;SDS011;19162;48.254;11.454;2022-08-06T01:04:20;4.00;;;2.72;;
32812;SDS011;19162;48.254;11.454;2022-08-06T01:07:20;3.80;;;2.93;;
32812;SDS011;19162;48.254;11.454;2022-08-06T01:10:20;3.38;;;2.90;;
32812;SDS011;19162;48.254;11.454;2022-08-06T01:13:22;3.47;;;2.97;;
32812;SDS011;19162;48.254;11.454;2022-08-06T01:16:38;2.77;;;2.57;;
32812;SDS011;19162;48.254;11.454;2022-08-06T01:19:55;3.92;;;3.08;;
32812;SDS011;19162;48.254;11.454;2022-08-06T01:29:11;2.28;;;2.05;;
32812;SDS011;19162;48.254;11.454;2022-08-06T01:32:15;2.55;;;2.30;;
32812;SDS011;19162;48.254;11.454;2022-08-06T01:35:18;2.58;;;2.15;;
32812;SDS011;19162;48.254;11.454;2022-08-06T01:38:22;3.40;;;2.45;;
32812;SDS011;19162;48.254;11.454;2022-08-06T01:41:23;3.40;;;3.10;;
32812;SDS011;19162;48.254;11.454;2022-08-06T01:44:42;3.03;;;2.67;;
32812;SDS011;19162;48.254;11.454;2022-08-06T01:47:45;3.03;;;2.70;;
32812;SDS011;19162;48.254;11.454;2022-08-06T01:50:48;3.03;;;2.72;;
32812;SDS011;19162;48.254;11.454;2022-08-06T01:53:48;2.83;;;2.35;;
32812;SDS011;19162;48.254;11.454;2022-08-06T01:56:49;2.87;;;2.67;;
32812;SDS011;19162;48.254;11.454;2022-08-06T01:59:51;2.58;;;2.38;;
32812;SDS011;19162;48.254;11.454;2022-08-06T02:02:53;2.30;;;2.10;;
32812;SDS011;19162;48.254;11.454;2022-08-06T02:05:54;2.65;;;2.45;;
32812;SDS011;19162;48.254;11.454;2022-08-06T02:08:56;2.60;;;2.40;;
32812;SDS011;19162;48.254;11.454;2022-08-06T02:12:00;2.85;;;2.60;;
32812;SDS011;19162;48.254;11.454;2022-08-06T02:15:05;2.30;;;2.10;;
32812;SDS011;19162;48.254;11.454;2022-08-06T02:18:06;3.28;;;2.72;;
32812;SDS011;19162;48.254;11.454;2022-08-06T02:21:12;2.67;;;2.47;;
32812;SDS011;19162;48.254;11.454;2022-08-06T02:24:14;2.97;;;2.30;;
32812;SDS011;19162;48.254;11.454;2022-08-06T02:27:15;2.30;;;2.10;;
32812;SDS011;19162;48.254;11.454;2022-08-06T02:30:17;2.50;;;2.35;;
32812;SDS011;19162;48.254;11.454;2022-08-06T02:33:17;2.70;;;2.50;;
32812;SDS011;19162;48.254;11.454;2022-08-06T02:36:18;3.37;;;3.07;;
32812;SDS011;19162;48.254;11.454;2022-08-06T02:39:26;2.70;;;2.55;;
32812;SDS011;19162;48.254;11.454;2022-08-06T02:42:32;3.33;;;3.00;;
32812;SDS011;19162;48.254;11.454;2022-08-06T02:45:41;2.92;;;2.72;;
32812;SDS011;19162;48.254;11.454;2022-08-06T02:48:50;3.70;;;3.17;;
32812;SDS011;19162;48.254;11.454;2022-08-06T02:51:55;4.25;;;3.85;;
32812;SDS011;19162;48.254;11.454;2022-08-06T02:55:02;4.82;;;4.45;;
32812;SDS011;19162;48.254;11.454;2022-08-06T02:58:12;5.57;;;5.05;;
32812;SDS011;19162;48.254;11.454;2022-08-06T03:01:18;4.72;;;4.28;;
32812;SDS011;19162;48.254;11.454;2022-08-06T03:04:21;5.75;;;5.25;;
32812;SDS011;19162;48.254;11.454;2022-08-06T03:10:24;5.82;;;5.38;;
32812;SDS011;19162;48.254;11.454;2022-08-06T03:13:24;7.30;;;6.53;;
32812;SDS011;19162;48.254;11.454;2022-08-06T03:16:26;6.80;;;6.20;;
32812;SDS011;19162;48.254;11.454;2022-08-06T03:19:27;7.55;;;6.78;;
32812;SDS011;19162;48.254;11.454;2022-08-06T03:22:28;7.30;;;6.80;;
32812;SDS011;19162;48.254;11.454;2022-08-06T03:25:29;7.40;;;6.90;;
32812;SDS011;19162;48.254;11.454;2022-08-06T03:28:29;7.95;;;7.25;;
32812;SDS011;19162;48.254;11.454;2022-08-06T03:31:31;8.55;;;7.88;;
32812;SDS011;19162;48.254;11.454;2022-08-06T03:34:31;7.90;;;7.30;;
32812;SDS011;19162;48.254;11.454;2022-08-06T03:37:32;8.60;;;7.90;;
32812;SDS011;19162;48.254;11.454;2022-08-06T03:40:33;9.27;;;8.43;;
32812;SDS011;19162;48.254;11.454;2022-08-06T03:43:33;9.23;;;8.52;;
32812;SDS011;19162;48.254;11.454;2022-08-06T03:46:56;11.88;;;10.77;;
32812;SDS011;19162;48.254;11.454;2022-08-06T03:52:55;13.43;;;12.25;;
32812;SDS011;19162;48.254;11.454;2022-08-06T03:55:59;12.80;;;11.82;;
32812;SDS011;19162;48.254;11.454;2022-08-06T03:59:00;12.00;;;11.00;;
32812;SDS011;19162;48.254;11.454;2022-08-06T04:02:01;11.48;;;10.68;;
32812;SDS011;19162;48.254;11.454;2022-08-06T04:05:02;8.73;;;8.10;;
32812;SDS011;19162;48.254;11.454;2022-08-06T04:08:04;7.97;;;7.38;;
32812;SDS011;19162;48.254;11.454;2022-08-06T04:11:04;8.00;;;7.40;;
32812;SDS011;19162;48.254;11.454;2022-08-06T04:14:05;9.13;;;8.43;;
32812;SDS011;19162;48.254;11.454;2022-08-06T04:17:05;8.93;;;8.23;;
32812;SDS011;19162;48.254;11.454;2022-08-06T04:20:06;9.18;;;8.45;;
32812;SDS011;19162;48.254;11.454;2022-08-06T04:23:07;9.45;;;8.75;;
32812;SDS011;19162;48.254;11.454;2022-08-06T04:26:07;9.80;;;8.93;;
32812;SDS011;19162;48.254;11.454;2022-08-06T04:29:09;8.95;;;8.15;;
32812;SDS011;19162;48.254;11.454;2022-08-06T04:32:11;8.90;;;8.18;;
32812;SDS011;19162;48.254;11.454;2022-08-06T04:38:14;8.85;;;8.05;;
32812;SDS011;19162;48.254;11.454;2022-08-06T04:41:15;8.52;;;7.70;;
32812;SDS011;19162;48.254;11.454;2022-08-06T04:44:15;9.77;;;7.55;;
32812;SDS011;19162;48.254;11.454;2022-08-06T04:47:16;7.93;;;7.25;;
32812;SDS011;19162;48.254;11.454;2022-08-06T04:50:16;8.30;;;7.50;;
32812;SDS011;19162;48.254;11.454;2022-08-06T04:53:17;6.83;;;6.33;;
32812;SDS011;19162;48.254;11.454;2022-08-06T04:56:18;6.57;;;5.97;;
32812;SDS011;19162;48.254;11.454;2022-08-06T04:59:18;6.63;;;6.13;;
32812;SDS011;19162;48.254;11.454;2022-08-06T05:02:19;7.03;;;6.47;;
32812;SDS011;19162;48.254;11.454;2022-08-06T05:05:20;6.95;;;6.45;;
32812;SDS011;19162;48.254;11.454;2022-08-06T05:08:21;7.45;;;6.95;;
32812;SDS011;19162;48.254;11.454;2022-08-06T05:11:24;8.15;;;7.45;;
32812;SDS011;19162;48.254;11.454;2022-08-06T05:17:32;5.60;;;5.15;;
32812;SDS011;19162;48.254;11.454;2022-08-06T05:20:34;5.88;;;5.00;;
32812;SDS011;19162;48.254;11.454;2022-08-06T05:23:37;5.55;;;5.03;;
32812;SDS011;19162;48.254;11.454;2022-08-06T05:26:38;6.45;;;5.95;;
32812;SDS011;19162;48.254;11.454;2022-08-06T05:29:39;6.78;;;6.18;;
32812;SDS011;19162;48.254;11.454;2022-08-06T05:32:43;6.07;;;5.57;;
32812;SDS011;19162;48.254;11.454;2022-08-06T05:35:44;5.13;;;4.72;;
32812;SDS011;19162;48.254;11.454;2022-08-06T05:38:44;4.35;;;4.10;;
32812;SDS011;19162;48.254;11.454;2022-08-06T05:41:44;4.60;;;4.30;;
32812;SDS011;19162;48.254;11.454;2022-08-06T05:44:44;5.10;;;4.57;;
32812;SDS011;19162;48.254;11.454;2022-08-06T05:47:45;4.90;;;4.50;;
32812;SDS011;19162;48.254;11.454;2022-08-06T05:50:48;5.17;;;4.70;;
32812;SDS011;19162;48.254;11.454;2022-08-06T05:53:51;4.72;;;4.35;;
32812;SDS011;19162;48.254;11.454;2022-08-06T05:56:56;4.55;;;4.03;;
32812;SDS011;19162;48.254;11.454;2022-08-06T05:59:59;4.53;;;4.22;;
32812;SDS011;19162;48.254;11.454;2022-08-06T06:06:01;3.92;;;3.60;;
32812;SDS011;19162;48.254;11.454;2022-08-06T06:09:02;4.20;;;3.90;;
32812;SDS011;19162;48.254;11.454;2022-08-06T06:12:02;4.40;;;4.00;;
32812;SDS011;19162;48.254;11.454;2022-08-06T06:15:03;4.40;;;4.10;;
32812;SDS011;19162;48.254;11.454;2022-08-06T06:21:12;4.25;;;3.95;;
32812;SDS011;19162;48.254;11.454;2022-08-06T06:24:31;4.75;;;4.35;;
32812;SDS011;19162;48.254;11.454;2022-08-06T06:27:50;4.97;;;4.35;;
32812;SDS011;19162;48.254;11.454;2022-08-06T06:31:04;3.95;;;3.60;;
32812;SDS011;19162;48.254;11.454;2022-08-06T06:43:46;6.80;;;4.03;;
32812;SDS011;19162;48.254;11.454;2022-08-06T06:50:49;4.75;;;4.35;;
32812;SDS011;19162;48.254;11.454;2022-08-06T06:53:30;4.30;;;3.90;;
32812;SDS011;19162;48.254;11.454;2022-08-06T06:56:33;4.50;;;4.13;;
32812;SDS011;19162;48.254;11.454;2022-08-06T06:59:36;5.00;;;4.38;;
32812;SDS011;19162;48.254;11.454;2022-08-06T07:02:38;4.57;;;4.28;;
32812;SDS011;19162;48.254;11.454;2022-08-06T07:05:42;5.07;;;4.70;;
32812;SDS011;19162;48.254;11.454;2022-08-06T07:08:45;6.70;;;5.28;;
32812;SDS011;19162;48.254;11.454;2022-08-06T07:11:47;4.88;;;4.00;;
32812;SDS011;19162;48.254;11.454;2022-08-06T07:14:49;6.28;;;5.72;;
32812;SDS011;19162;48.254;11.454;2022-08-06T07:17:50;6.03;;;5.63;;
32812;SDS011;19162;48.254;11.454;2022-08-06T07:20:50;7.00;;;6.32;;
32812;SDS011;19162;48.254;11.454;2022-08-06T07:23:51;6.13;;;5.73;;
32812;SDS011;19162;48.254;11.454;2022-08-06T07:26:52;8.35;;;7.65;;
32812;SDS011;19162;48.254;11.454;2022-08-06T07:29:53;7.88;;;7.13;;
32812;SDS011;19162;48.254;11.454;2022-08-06T07:32:55;8.80;;;7.97;;
32812;SDS011;19162;48.254;11.454;2022-08-06T07:35:55;8.60;;;7.93;;
32812;SDS011;19162;48.254;11.454;2022-08-06T07:38:57;7.68;;;7.07;;
32812;SDS011;19162;48.254;11.454;2022-08-06T07:41:59;8.73;;;8.02;;
32812;SDS011;19162;48.254;11.454;2022-08-06T07:45:00;9.52;;;8.82;;
32812;SDS011;19162;48.254;11.454;2022-08-06T07:48:04;10.10;;;8.90;;
32812;SDS011;19162;48.254;11.454;2022-08-06T07:51:05;8.73;;;7.95;;
32812;SDS011;19162;48.254;11.454;2022-08-06T07:54:06;9.77;;;9.07;;
32812;SDS011;19162;48.254;11.454;2022-08-06T07:57:07;10.02;;;9.23;;
32812;SDS011;19162;48.254;11.454;2022-08-06T08:00:08;10.60;;;9.60;;
32812;SDS011;19162;48.254;11.454;2022-08-06T08:03:09;10.43;;;9.55;;
32812;SDS011;19162;48.254;11.454;2022-08-06T08:06:28;10.98;;;10.05;;
32812;SDS011;19162;48.254;11.454;2022-08-06T08:09:29;11.52;;;10.73;;
32812;SDS011;19162;48.254;11.454;2022-08-06T08:12:30;11.48;;;10.55;;
32812;SDS011;19162;48.254;11.454;2022-08-06T08:15:31;11.68;;;10.68;;
32812;SDS011;19162;48.254;11.454;2022-08-06T08:18:32;13.40;;;12.32;;
32812;SDS011;19162;48.254;11.454;2022-08-06T08:21:32;14.97;;;13.60;;
32812;SDS011;19162;48.254;11.454;2022-08-06T08:24:36;12.80;;;11.77;;
32812;SDS011;19162;48.254;11.454;2022-08-06T08:27:36;13.13;;;12.23;;
32812;SDS011;19162;48.254;11.454;2022-08-06T08:30:37;13.43;;;12.35;;
32812;SDS011;19162;48.254;11.454;2022-08-06T08:33:38;13.98;;;12.98;;
32812;SDS011;19162;48.254;11.454;2022-08-06T08:36:39;13.95;;;12.85;;
32812;SDS011;19162;48.254;11.454;2022-08-06T08:39:39;15.35;;;14.30;;
32812;SDS011;19162;48.254;11.454;2022-08-06T08:42:40;15.30;;;14.10;;
32812;SDS011;19162;48.254;11.454;2022-08-06T08:45:42;15.65;;;14.32;;
32812;SDS011;19162;48.254;11.454;2022-08-06T08:48:43;15.18;;;14.00;;
32812;SDS011;19162;48.254;11.454;2022-08-06T08:51:44;15.30;;;14.13;;
32812;SDS011;19162;48.254;11.454;2022-08-06T08:54:46;16.40;;;15.20;;
32812;SDS011;19162;48.254;11.454;2022-08-06T09:00:48;17.23;;;15.93;;
32812;SDS011;19162;48.254;11.454;2022-08-06T09:03:48;17.23;;;15.77;;
32812;SDS011;19162;48.254;11.454;2022-08-06T09:06:48;18.08;;;16.67;;
32812;SDS011;19162;48.254;11.454;2022-08-06T09:09:49;17.25;;;15.95;;
32812;SDS011;19162;48.254;11.454;2022-08-06T09:12:49;18.17;;;16.67;;
32812;SDS011;19162;48.254;11.454;2022-08-06T09:15:50;16.47;;;15.17;;
32812;SDS011;19162;48.254;11.454;2022-08-06T09:18:50;16.98;;;15.57;;
32812;SDS011;19162;48.254;11.454;2022-08-06T09:21:50;15.27;;;14.10;;
32812;SDS011;19162;48.254;11.454;2022-08-06T09:24:51;15.43;;;14.23;;
32812;SDS011;19162;48.254;11.454;2022-08-06T09:27:51;15.15;;;14.02;;
32812;SDS011;19162;48.254;11.454;2022-08-06T09:30:58;15.37;;;14.27;;
32812;SDS011;19162;48.254;11.454;2022-08-06T09:34:00;14.32;;;13.23;;
32812;SDS011;19162;48.254;11.454;2022-08-06T09:37:00;14.02;;;12.90;;
32812;SDS011;19162;48.254;11.454;2022-08-06T09:40:09;14.70;;;13.60;;
32812;SDS011;19162;48.254;11.454;2022-08-06T09:43:10;13.80;;;12.80;;
32812;SDS011;19162;48.254;11.454;2022-08-06T09:49:43;13.40;;;12.13;;
32812;SDS011;19162;48.254;11.454;2022-08-06T09:52:49;13.02;;;11.98;;
32812;SDS011;19162;48.254;11.454;2022-08-06T09:56:00;13.00;;;12.02;;
32812;SDS011;19162;48.254;11.454;2022-08-06T09:59:01;12.47;;;11.60;;
32812;SDS011;19162;48.254;11.454;2022-08-06T10:02:02;13.18;;;12.20;;
32812;SDS011;19162;48.254;11.454;2022-08-06T10:05:11;12.85;;;11.88;;
32812;SDS011;19162;48.254;11.454;2022-08-06T10:08:14;12.50;;;11.37;;
32812;SDS011;19162;48.254;11.454;2022-08-06T10:11:34;13.45;;;12.35;;
32812;SDS011;19162;48.254;11.454;2022-08-06T10:14:34;12.45;;;11.55;;
32812;SDS011;19162;48.254;11.454;2022-08-06T10:17:35;12.68;;;11.63;;
32812;SDS011;19162;48.254;11.454;2022-08-06T10:20:35;12.35;;;11.43;;
32812;SDS011;19162;48.254;11.454;2022-08-06T10:23:36;12.63;;;11.80;;
32812;SDS011;19162;48.254;11.454;2022-08-06T10:26:36;12.77;;;11.80;;
32812;SDS011;19162;48.254;11.454;2022-08-06T10:32:47;12.25;;;11.20;;
32812;SDS011;19162;48.254;11.454;2022-08-06T10:35:51;11.73;;;11.00;;
32812;SDS011;19162;48.254;11.454;2022-08-06T10:38:52;11.05;;;10.30;;
32812;SDS011;19162;48.254;11.454;2022-08-06T10:41:54;11.10;;;10.27;;
32812;SDS011;19162;48.254;11.454;2022-08-06T10:44:54;11.15;;;10.35;;
32812;SDS011;19162;48.254;11.454;2022-08-06T10:47:56;12.13;;;11.32;;
32812;SDS011;19162;48.254;11.454;2022-08-06T10:50:56;12.38;;;11.48;;
32812;SDS011;19162;48.254;11.454;2022-08-06T10:53:56;13.57;;;12.57;;
32812;SDS011;19162;48.254;11.454;2022-08-06T10:56:57;13.88;;;12.98;;
32812;SDS011;19162;48.254;11.454;2022-08-06T10:59:57;14.43;;;13.32;;
32812;SDS011;19162;48.254;11.454;2022-08-06T11:06:35;15.88;;;14.25;;
32812;SDS011;19162;48.254;11.454;2022-08-06T11:13:09;15.70;;;14.57;;
32812;SDS011;19162;48.254;11.454;2022-08-06T11:16:21;15.40;;;14.23;;
32812;SDS011;19162;48.254;11.454;2022-08-06T11:19:36;15.52;;;14.40;;
32812;SDS011;19162;48.254;11.454;2022-08-06T11:22:37;14.70;;;13.60;;
32812;SDS011;19162;48.254;11.454;2022-08-06T11:25:42;14.20;;;13.02;;
32812;SDS011;19162;48.254;11.454;2022-08-06T11:31:50;12.73;;;11.82;;
32812;SDS011;19162;48.254;11.454;2022-08-06T11:34:51;13.48;;;12.57;;
32812;SDS011;19162;48.254;11.454;2022-08-06T11:37:51;13.57;;;12.47;;
32812;SDS011;19162;48.254;11.454;2022-08-06T11:41:02;12.07;;;11.13;;
32812;SDS011;19162;48.254;11.454;2022-08-06T11:44:06;11.65;;;10.80;;
32812;SDS011;19162;48.254;11.454;2022-08-06T11:47:08;11.33;;;10.40;;
32812;SDS011;19162;48.254;11.454;2022-08-06T11:50:22;11.18;;;10.27;;
32812;SDS011;19162;48.254;11.454;2022-08-06T11:53:36;10.95;;;9.93;;
32812;SDS011;19162;48.254;11.454;2022-08-06T12:02:56;10.40;;;9.70;;
32812;SDS011;19162;48.254;11.454;2022-08-06T12:05:57;10.35;;;9.55;;
32812;SDS011;19162;48.254;11.454;2022-08-06T12:09:07;9.87;;;9.17;;
32812;SDS011;19162;48.254;11.454;2022-08-06T12:18:37;9.90;;;9.10;;
32812;SDS011;19162;48.254;11.454;2022-08-06T12:21:37;9.40;;;8.70;;
32812;SDS011;19162;48.254;11.454;2022-08-06T12:24:39;9.82;;;9.13;;
32812;SDS011;19162;48.254;11.454;2022-08-06T12:27:40;8.98;;;8.27;;
32812;SDS011;19162;48.254;11.454;2022-08-06T12:30:51;9.67;;;9.07;;
32812;SDS011;19162;48.254;11.454;2022-08-06T12:33:51;9.57;;;8.90;;
32812;SDS011;19162;48.254;11.454;2022-08-06T12:36:51;9.73;;;8.83;;
32812;SDS011;19162;48.254;11.454;2022-08-06T12:39:51;9.67;;;8.97;;
32812;SDS011;19162;48.254;11.454;2022-08-06T12:43:11;8.90;;;8.23;;
32812;SDS011;19162;48.254;11.454;2022-08-06T12:46:11;9.73;;;9.00;;
32812;SDS011;19162;48.254;11.454;2022-08-06T12:49:11;10.00;;;9.13;;
32812;SDS011;19162;48.254;11.454;2022-08-06T12:52:12;9.90;;;8.57;;
32812;SDS011;19162;48.254;11.454;2022-08-06T12:55:16;9.63;;;8.93;;
32812;SDS011;19162;48.254;11.454;2022-08-06T12:58:36;10.77;;;9.77;;
32812;SDS011;19162;48.254;11.454;2022-08-06T13:01:36;9.63;;;8.93;;
32812;SDS011;19162;48.254;11.454;2022-08-06T13:04:37;10.35;;;9.30;;
32812;SDS011;19162;48.254;11.454;2022-08-06T13:07:39;9.83;;;8.83;;
32812;SDS011;19162;48.254;11.454;2022-08-06T13:10:49;10.25;;;9.45;;
32812;SDS011;19162;48.254;11.454;2022-08-06T13:13:51;9.73;;;9.02;;
32812;SDS011;19162;48.254;11.454;2022-08-06T13:16:51;10.38;;;9.57;;
32812;SDS011;19162;48.254;11.454;2022-08-06T13:19:52;10.27;;;9.47;;
32812;SDS011;19162;48.254;11.454;2022-08-06T13:22:53;9.18;;;8.38;;
32812;SDS011;19162;48.254;11.454;2022-08-06T13:25:53;9.60;;;8.93;;
32812;SDS011;19162;48.254;11.454;2022-08-06T13:32:10;9.70;;;9.00;;
32812;SDS011;19162;48.254;11.454;2022-08-06T13:35:10;9.30;;;8.70;;
32812;SDS011;19162;48.254;11.454;2022-08-06T13:38:11;8.13;;;7.57;;
32812;SDS011;19162;48.254;11.454;2022-08-06T13:41:11;8.75;;;8.15;;
32812;SDS011;19162;48.254;11.454;2022-08-06T13:44:26;7.75;;;6.43;;
32812;SDS011;19162;48.254;11.454;2022-08-06T13:47:27;7.72;;;7.13;;
32812;SDS011;19162;48.254;11.454;2022-08-06T13:50:27;8.02;;;7.53;;
32812;SDS011;19162;48.254;11.454;2022-08-06T13:53:27;6.97;;;6.28;;
32812;SDS011;19162;48.254;11.454;2022-08-06T13:56:28;6.60;;;6.10;;
32812;SDS011;19162;48.254;11.454;2022-08-06T13:59:29;7.22;;;6.60;;
32812;SDS011;19162;48.254;11.454;2022-08-06T14:02:29;7.47;;;6.88;;
32812;SDS011;19162;48.254;11.454;2022-08-06T14:05:29;7.87;;;7.27;;
32812;SDS011;19162;48.254;11.454;2022-08-06T14:08:30;7.38;;;6.82;;
32812;SDS011;19162;48.254;11.454;2022-08-06T14:11:30;7.82;;;7.20;;
32812;SDS011;19162;48.254;11.454;2022-08-06T14:14:30;7.15;;;6.55;;
32812;SDS011;19162;48.254;11.454;2022-08-06T14:17:30;6.97;;;6.37;;
32812;SDS011;19162;48.254;11.454;2022-08-06T14:20:30;6.70;;;6.28;;
32812;SDS011;19162;48.254;11.454;2022-08-06T14:23:31;7.40;;;6.80;;
32812;SDS011;19162;48.254;11.454;2022-08-06T14:26:31;7.35;;;6.85;;
32812;SDS011;19162;48.254;11.454;2022-08-06T14:29:31;7.20;;;6.72;;
32812;SDS011;19162;48.254;11.454;2022-08-06T14:32:31;6.88;;;6.38;;
32812;SDS011;19162;48.254;11.454;2022-08-06T14:35:32;7.60;;;6.93;;
32812;SDS011;19162;48.254;11.454;2022-08-06T14:38:33;7.65;;;6.90;;
32812;SDS011;19162;48.254;11.454;2022-08-06T14:41:34;6.17;;;5.70;;
32812;SDS011;19162;48.254;11.454;2022-08-06T14:44:53;7.13;;;6.53;;
32812;SDS011;19162;48.254;11.454;2022-08-06T14:47:57;6.30;;;5.80;;
32812;SDS011;19162;48.254;11.454;2022-08-06T14:50:57;6.55;;;6.13;;
32812;SDS011;19162;48.254;11.454;2022-08-06T14:53:57;6.15;;;5.75;;
32812;SDS011;19162;48.254;11.454;2022-08-06T14:57:01;5.63;;;5.13;;
32812;SDS011;19162;48.254;11.454;2022-08-06T15:00:06;6.50;;;6.07;;
32812;SDS011;19162;48.254;11.454;2022-08-06T15:03:06;7.32;;;6.70;;
32812;SDS011;19162;48.254;11.454;2022-08-06T15:06:06;5.73;;;5.33;;
32812;SDS011;19162;48.254;11.454;2022-08-06T15:09:07;6.53;;;6.03;;
32812;SDS011;19162;48.254;11.454;2022-08-06T15:12:08;5.80;;;5.40;;
32812;SDS011;19162;48.254;11.454;2022-08-06T15:15:08;6.17;;;5.67;;
32812;SDS011;19162;48.254;11.454;2022-08-06T15:18:08;6.28;;;5.78;;
32812;SDS011;19162;48.254;11.454;2022-08-06T15:21:08;5.30;;;5.00;;
32812;SDS011;19162;48.254;11.454;2022-08-06T15:24:08;6.38;;;5.82;;
32812;SDS011;19162;48.254;11.454;2022-08-06T15:27:09;6.57;;;5.90;;
32812;SDS011;19162;48.254;11.454;2022-08-06T15:30:09;6.10;;;5.60;;
32812;SDS011;19162;48.254;11.454;2022-08-06T15:33:10;5.18;;;4.78;;
32812;SDS011;19162;48.254;11.454;2022-08-06T15:36:10;5.75;;;5.32;;
32812;SDS011;19162;48.254;11.454;2022-08-06T15:39:11;6.25;;;5.75;;
32812;SDS011;19162;48.254;11.454;2022-08-06T15:42:11;5.17;;;4.77;;
32812;SDS011;19162;48.254;11.454;2022-08-06T15:45:11;6.00;;;5.50;;
32812;SDS011;19162;48.254;11.454;2022-08-06T15:48:13;5.85;;;5.35;;
32812;SDS011;19162;48.254;11.454;2022-08-06T15:51:13;7.47;;;6.13;;
32812;SDS011;19162;48.254;11.454;2022-08-06T15:54:14;6.67;;;5.53;;
32812;SDS011;19162;48.254;11.454;2022-08-06T15:57:14;5.43;;;4.95;;
32812;SDS011;19162;48.254;11.454;2022-08-06T16:00:15;6.00;;;5.57;;
32812;SDS011;19162;48.254;11.454;2022-08-06T16:03:16;6.38;;;5.88;;
32812;SDS011;19162;48.254;11.454;2022-08-06T16:06:16;6.30;;;5.80;;
32812;SDS011;19162;48.254;11.454;2022-08-06T16:09:16;5.93;;;5.35;;
32812;SDS011;19162;48.254;11.454;2022-08-06T16:12:16;5.13;;;4.83;;
32812;SDS011;19162;48.254;11.454;2022-08-06T16:15:17;5.47;;;4.93;;
32812;SDS011;19162;48.254;11.454;2022-08-06T16:18:18;5.40;;;4.90;;
32812;SDS011;19162;48.254;11.454;2022-08-06T16:21:19;4.77;;;4.47;;
32812;SDS011;19162;48.254;11.454;2022-08-06T16:24:19;4.67;;;4.37;;
32812;SDS011;19162;48.254;11.454;2022-08-06T16:27:19;5.13;;;4.82;;
32812;SDS011;19162;48.254;11.454;2022-08-06T16:30:20;5.30;;;4.90;;
32812;SDS011;19162;48.254;11.454;2022-08-06T16:33:20;5.65;;;5.25;;
32812;SDS011;19162;48.254;11.454;2022-08-06T16:36:20;4.87;;;4.57;;
32812;SDS011;19162;48.254;11.454;2022-08-06T16:39:20;5.73;;;5.33;;
32812;SDS011;19162;48.254;11.454;2022-08-06T16:42:21;5.70;;;5.20;;
32812;SDS011;19162;48.254;11.454;2022-08-06T16:45:22;6.28;;;5.68;;
32812;SDS011;19162;48.254;11.454;2022-08-06T16:48:23;5.30;;;5.00;;
32812;SDS011;19162;48.254;11.454;2022-08-06T16:51:23;5.37;;;4.97;;
32812;SDS011;19162;48.254;11.454;2022-08-06T16:54:23;4.70;;;4.40;;
32812;SDS011;19162;48.254;11.454;2022-08-06T16:57:23;5.60;;;5.22;;
32812;SDS011;19162;48.254;11.454;2022-08-06T17:00:23;5.10;;;4.80;;
32812;SDS011;19162;48.254;11.454;2022-08-06T17:03:24;4.97;;;4.57;;
32812;SDS011;19162;48.254;11.454;2022-08-06T17:06:24;6.13;;;5.53;;
32812;SDS011;19162;48.254;11.454;2022-08-06T17:09:27;6.60;;;6.10;;
32812;SDS011;19162;48.254;11.454;2022-08-06T17:12:27;5.65;;;5.15;;
32812;SDS011;19162;48.254;11.454;2022-08-06T17:15:27;5.03;;;4.72;;
32812;SDS011;19162;48.254;11.454;2022-08-06T17:18:28;6.55;;;5.22;;
32812;SDS011;19162;48.254;11.454;2022-08-06T17:21:28;5.27;;;4.83;;
32812;SDS011;19162;48.254;11.454;2022-08-06T17:24:29;5.03;;;4.72;;
32812;SDS011;19162;48.254;11.454;2022-08-06T17:27:29;5.72;;;5.32;;
32812;SDS011;19162;48.254;11.454;2022-08-06T17:30:29;5.70;;;5.20;;
32812;SDS011;19162;48.254;11.454;2022-08-06T17:33:33;5.28;;;4.88;;
32812;SDS011;19162;48.254;11.454;2022-08-06T17:36:33;5.28;;;4.88;;
32812;SDS011;19162;48.254;11.454;2022-08-06T17:39:33;7.20;;;6.60;;
32812;SDS011;19162;48.254;11.454;2022-08-06T17:42:33;4.97;;;4.47;;
32812;SDS011;19162;48.254;11.454;2022-08-06T17:45:34;6.83;;;4.37;;
32812;SDS011;19162;48.254;11.454;2022-08-06T17:48:34;15.10;;;13.77;;
32812;SDS011;19162;48.254;11.454;2022-08-06T17:51:36;5.37;;;4.97;;
32812;SDS011;19162;48.254;11.454;2022-08-06T17:54:36;10.33;;;8.30;;
32812;SDS011;19162;48.254;11.454;2022-08-06T17:57:36;5.57;;;5.13;;
32812;SDS011;19162;48.254;11.454;2022-08-06T18:00:36;5.63;;;5.20;;
32812;SDS011;19162;48.254;11.454;2022-08-06T18:03:37;5.97;;;5.47;;
32812;SDS011;19162;48.254;11.454;2022-08-06T18:06:37;5.90;;;5.30;;
32812;SDS011;19162;48.254;11.454;2022-08-06T18:09:38;6.27;;;5.80;;
32812;SDS011;19162;48.254;11.454;2022-08-06T18:12:38;8.13;;;7.53;;
32812;SDS011;19162;48.254;11.454;2022-08-06T18:15:39;7.05;;;6.30;;
32812;SDS011;19162;48.254;11.454;2022-08-06T18:18:39;8.13;;;7.47;;
32812;SDS011;19162;48.254;11.454;2022-08-06T18:21:39;46.05;;;42.90;;
32812;SDS011;19162;48.254;11.454;2022-08-06T18:24:39;24.55;;;20.63;;
32812;SDS011;19162;48.254;11.454;2022-08-06T18:27:40;4.93;;;4.45;;
32812;SDS011;19162;48.254;11.454;2022-08-06T18:30:40;5.60;;;5.20;;
32812;SDS011;19162;48.254;11.454;2022-08-06T18:33:41;5.57;;;5.17;;
32812;SDS011;19162;48.254;11.454;2022-08-06T18:36:41;6.00;;;5.40;;
32812;SDS011;19162;48.254;11.454;2022-08-06T18:39:41;6.13;;;5.50;;
32812;SDS011;19162;48.254;11.454;2022-08-06T18:42:41;6.10;;;5.60;;
32812;SDS011;19162;48.254;11.454;2022-08-06T18:45:41;6.20;;;5.70;;
32812;SDS011;19162;48.254;11.454;2022-08-06T18:48:42;5.90;;;5.40;;
32812;SDS011;19162;48.254;11.454;2022-08-06T18:51:43;5.85;;;5.45;;
32812;SDS011;19162;48.254;11.454;2022-08-06T18:54:44;6.45;;;5.80;;
32812;SDS011;19162;48.254;11.454;2022-08-06T18:57:46;5.93;;;5.43;;
32812;SDS011;19162;48.254;11.454;2022-08-06T19:00:46;5.80;;;5.40;;
32812;SDS011;19162;48.254;11.454;2022-08-06T19:03:46;6.17;;;5.73;;
32812;SDS011;19162;48.254;11.454;2022-08-06T19:06:46;6.05;;;5.20;;